Time;durP1;ratioP1;P1;durP2;ratioP2;P2;SDS_P1;SDS_P2;PMS_P1;PMS_P2;Temp;Humidity;BMP_temperature;BMP_pressure;BME280_temperature;BME280_humidity;BME280_pressure;Samples;Min_cycle;Max_cycle;Signal;HPM_P1;HPM_P2
2023/10/08 00:01:18;;;;;;;1.48;0.40;;;2.80;99.90;;;;;;5056372;28;20213;-84
2023/10/08 00:03:50;;;;;;;1.75;0.30;;;2.80;99.90;;;;;;5059244;28;20295;-85
2023/10/08 00:06:20;;;;;;;2.22;0.30;;;2.70;99.90;;;;;;5063738;28;20330;-83
2023/10/08 00:08:49;;;;;;;0.63;0.30;;;2.80;99.90;;;;;;5057886;28;20197;-84
2023/10/08 00:11:22;;;;;;;1.05;0.40;;;2.70;99.90;;;;;;5063502;28;20203;-83
2023/10/08 00:13:50;;;;;;;2.90;0.45;;;2.70;99.90;;;;;;5063811;28;20181;-85
2023/10/08 00:16:18;;;;;;;0.63;0.30;;;2.70;99.90;;;;;;5060679;28;20275;-83
2023/10/08 00:18:51;;;;;;;2.08;0.43;;;2.60;99.90;;;;;;5051554;28;20212;-83
2023/10/08 00:21:27;;;;;;;7.53;0.57;;;2.70;99.90;;;;;;5058782;28;20212;-83
2023/10/08 00:23:58;;;;;;;0.98;0.30;;;2.80;99.90;;;;;;5060547;28;20217;-83
2023/10/08 00:26:31;;;;;;;3.70;0.40;;;2.50;99.90;;;;;;5052839;28;20195;-84
2023/10/08 00:29:15;;;;;;;0.82;0.30;;;2.50;99.90;;;;;;5060807;28;20547;-84
2023/10/08 00:31:49;;;;;;;1.33;0.43;;;2.50;99.90;;;;;;5063080;28;20185;-85
2023/10/08 00:34:19;;;;;;;1.00;0.50;;;2.50;99.90;;;;;;5040886;28;20188;-83
2023/10/08 00:36:48;;;;;;;2.08;0.40;;;2.50;99.90;;;;;;5057233;28;20733;-84
2023/10/08 00:39:23;;;;;;;0.30;0.25;;;2.60;99.90;;;;;;5057871;28;20181;-85
2023/10/08 00:41:58;;;;;;;1.42;0.30;;;2.70;99.90;;;;;;5067669;28;20269;-83
2023/10/08 00:44:32;;;;;;;0.85;0.45;;;2.80;99.90;;;;;;5055772;28;20685;-84
2023/10/08 00:47:01;;;;;;;3.03;0.40;;;2.60;99.90;;;;;;5059132;28;20189;-83
2023/10/08 00:57:26;;;;;;;1.52;0.40;;;2.40;99.90;;;;;;5058082;28;20229;-85
2023/10/08 00:59:55;;;;;;;1.95;0.40;;;2.40;99.90;;;;;;5060051;28;20573;-86
2023/10/08 01:02:30;;;;;;;4.35;0.50;;;2.50;99.90;;;;;;5055743;28;20674;-84
2023/10/08 01:05:00;;;;;;;2.28;0.30;;;2.60;99.90;;;;;;5065785;28;20265;-85
2023/10/08 01:07:30;;;;;;;1.42;0.50;;;2.50;99.90;;;;;;5063750;28;20309;-85
2023/10/08 01:10:00;;;;;;;0.85;0.45;;;2.20;99.90;;;;;;5057218;28;20188;-83
2023/10/08 01:12:33;;;;;;;1.98;0.50;;;2.20;99.90;;;;;;5064483;28;20238;-84
2023/10/08 01:15:16;;;;;;;1.17;0.40;;;2.20;99.90;;;;;;5064789;28;20203;-84
2023/10/08 01:17:58;;;;;;;1.38;0.40;;;2.40;99.90;;;;;;5060654;28;20189;-83
2023/10/08 01:20:38;;;;;;;2.72;0.40;;;2.40;99.90;;;;;;5059339;28;20659;-84
2023/10/08 01:23:13;;;;;;;1.08;0.35;;;2.30;99.90;;;;;;5046526;28;20208;-84
2023/10/08 01:25:42;;;;;;;0.75;0.40;;;2.10;99.90;;;;;;5051252;28;20291;-85
2023/10/08 01:28:25;;;;;;;1.13;0.50;;;1.90;99.90;;;;;;5059947;28;20211;-83
2023/10/08 01:30:54;;;;;;;2.80;0.50;;;2.00;99.90;;;;;;5056036;28;20658;-84
2023/10/08 01:33:22;;;;;;;1.83;0.50;;;1.90;99.90;;;;;;5058366;28;20196;-84
2023/10/08 01:35:50;;;;;;;0.77;0.30;;;1.90;99.90;;;;;;5049066;28;20659;-83
2023/10/08 01:38:23;;;;;;;2.03;0.50;;;2.00;99.90;;;;;;5058948;28;20185;-84
2023/10/08 01:40:52;;;;;;;2.65;0.50;;;2.10;99.90;;;;;;5059148;28;20239;-82
2023/10/08 01:43:20;;;;;;;1.00;0.30;;;2.10;99.90;;;;;;5048067;28;20271;-84
2023/10/08 01:45:52;;;;;;;2.08;0.40;;;2.20;99.90;;;;;;5059693;28;20216;-83
2023/10/08 01:48:25;;;;;;;0.50;0.30;;;2.10;99.90;;;;;;5061722;28;20607;-82
2023/10/08 01:51:01;;;;;;;2.80;0.60;;;1.80;99.90;;;;;;5059093;28;20669;-83
2023/10/08 01:53:28;;;;;;;1.80;0.45;;;1.80;99.90;;;;;;5057235;28;20600;-83
2023/10/08 01:55:56;;;;;;;1.85;0.45;;;1.70;99.90;;;;;;5051041;28;20962;-84
2023/10/08 01:58:24;;;;;;;1.08;0.40;;;1.70;99.90;;;;;;5057007;28;20552;-83
2023/10/08 02:00:54;;;;;;;1.38;0.30;;;1.60;99.90;;;;;;5054716;28;20194;-84
2023/10/08 02:03:22;;;;;;;1.60;0.50;;;1.70;99.90;;;;;;5059886;28;20276;-84
2023/10/08 02:05:53;;;;;;;3.53;0.40;;;1.70;99.90;;;;;;5058526;28;20204;-84
2023/10/08 02:08:21;;;;;;;1.52;0.40;;;1.80;99.90;;;;;;5057841;28;20194;-85
2023/10/08 02:10:48;;;;;;;2.30;0.40;;;1.70;99.90;;;;;;5056625;28;20191;-83
2023/10/08 02:13:16;;;;;;;2.53;0.40;;;1.70;99.90;;;;;;5057786;28;20224;-83
2023/10/08 02:15:51;;;;;;;1.23;0.40;;;1.80;99.90;;;;;;5062777;28;20185;-84
2023/10/08 02:18:21;;;;;;;0.63;0.30;;;1.80;99.90;;;;;;5056096;28;20250;-85
2023/10/08 02:20:49;;;;;;;1.98;0.40;;;1.80;99.90;;;;;;5046534;28;20216;-83
2023/10/08 02:23:17;;;;;;;0.40;0.30;;;1.70;99.90;;;;;;5059465;28;20208;-84
2023/10/08 02:25:47;;;;;;;2.13;0.30;;;1.60;99.90;;;;;;5057421;28;20205;-83
2023/10/08 02:28:16;;;;;;;1.23;0.40;;;1.60;99.90;;;;;;5057409;28;20184;-83
2023/10/08 02:30:43;;;;;;;0.85;0.28;;;1.70;99.90;;;;;;5042871;28;20189;-84
2023/10/08 02:33:17;;;;;;;0.40;0.30;;;1.70;99.90;;;;;;5066477;28;20217;-83
2023/10/08 02:35:46;;;;;;;2.60;0.40;;;1.70;99.90;;;;;;5043701;28;20945;-85
2023/10/08 02:38:16;;;;;;;1.40;0.40;;;1.70;99.90;;;;;;5061412;28;20193;-83
2023/10/08 02:40:46;;;;;;;0.45;0.30;;;1.70;99.90;;;;;;5062421;28;21071;-83
2023/10/08 02:43:16;;;;;;;0.88;0.50;;;1.60;99.90;;;;;;5068773;28;20617;-83
2023/10/08 02:45:48;;;;;;;1.98;0.30;;;1.70;99.90;;;;;;5067862;28;20320;-84
2023/10/08 02:48:17;;;;;;;2.67;0.40;;;1.80;99.90;;;;;;5060642;28;20204;-84
2023/10/08 02:50:46;;;;;;;1.63;0.40;;;1.60;99.90;;;;;;5062060;28;20185;-83
2023/10/08 02:53:25;;;;;;;1.00;0.30;;;1.70;99.90;;;;;;5051160;28;20193;-84
2023/10/08 02:55:53;;;;;;;1.88;0.30;;;1.60;99.90;;;;;;5036540;28;20196;-84
2023/10/08 02:58:21;;;;;;;1.60;0.40;;;1.60;99.90;;;;;;5033986;28;20546;-83
2023/10/08 03:00:49;;;;;;;0.47;0.35;;;1.70;99.90;;;;;;5051274;28;20269;-83
2023/10/08 03:03:22;;;;;;;0.50;0.10;;;1.60;99.90;;;;;;5057354;28;20193;-83
2023/10/08 03:05:52;;;;;;;0.95;0.30;;;1.70;99.90;;;;;;5055883;28;20215;-86
2023/10/08 03:08:20;;;;;;;0.75;0.40;;;1.80;99.90;;;;;;5063073;28;20326;-83
2023/10/08 03:11:02;;;;;;;3.67;0.40;;;1.90;99.90;;;;;;5068919;28;20242;-83
2023/10/08 03:13:30;;;;;;;0.50;0.30;;;1.90;99.90;;;;;;5060636;28;20238;-83
2023/10/08 03:18:42;;;;;;;0.55;0.20;;;1.90;99.90;;;;;;5056137;28;20216;-82
2023/10/08 03:24:29;;;;;;;1.67;0.30;;;1.90;99.90;;;;;;5056305;28;20288;-84
2023/10/08 03:29:58;;;;;;;1.85;0.43;;;1.90;99.90;;;;;;5058602;28;20216;-83
2023/10/08 03:32:27;;;;;;;0.40;0.40;;;2.00;99.90;;;;;;5047628;28;20269;-83
2023/10/08 03:34:54;;;;;;;0.85;0.30;;;2.00;99.90;;;;;;5062234;28;20284;-84
2023/10/08 03:37:41;;;;;;;0.60;0.30;;;1.70;99.90;;;;;;5051591;28;20196;-85
2023/10/08 03:42:58;;;;;;;1.20;0.40;;;1.80;99.90;;;;;;5059917;28;20218;-82
2023/10/08 03:48:15;;;;;;;0.95;0.50;;;1.80;99.90;;;;;;5050661;28;20220;-84
2023/10/08 03:50:43;;;;;;;0.60;0.38;;;1.80;99.90;;;;;;5061551;28;20200;-84
2023/10/08 03:53:13;;;;;;;1.08;0.30;;;1.80;99.90;;;;;;5065311;28;20188;-83
2023/10/08 03:55:41;;;;;;;1.63;0.30;;;1.70;99.90;;;;;;5052620;28;20272;-83
2023/10/08 03:58:29;;;;;;;1.27;0.40;;;1.80;99.90;;;;;;5061286;28;20183;-83
2023/10/08 04:01:10;;;;;;;0.43;0.30;;;1.70;99.90;;;;;;5061675;28;20193;-84
2023/10/08 04:06:39;;;;;;;0.40;0.25;;;1.70;99.90;;;;;;5061220;28;20196;-84
2023/10/08 04:14:25;;;;;;;2.13;0.40;;;1.80;99.90;;;;;;5074084;28;20201;-83
2023/10/08 04:16:53;;;;;;;1.35;0.35;;;1.90;99.90;;;;;;5061348;28;20184;-84
2023/10/08 04:19:26;;;;;;;1.10;0.40;;;1.70;99.90;;;;;;5059167;28;20187;-83
2023/10/08 04:21:55;;;;;;;2.92;0.30;;;1.80;99.90;;;;;;5059640;28;20673;-84
2023/10/08 04:24:46;;;;;;;2.58;0.20;;;1.70;99.90;;;;;;5040694;28;20599;-83
2023/10/08 04:27:14;;;;;;;2.45;0.57;;;1.70;99.90;;;;;;5050712;28;20217;-84
2023/10/08 04:29:42;;;;;;;4.95;0.40;;;1.70;99.90;;;;;;5057950;28;20184;-84
2023/10/08 04:32:21;;;;;;;0.52;0.30;;;1.80;99.90;;;;;;5062363;28;20212;-84
2023/10/08 04:34:49;;;;;;;0.90;0.32;;;1.70;99.90;;;;;;5057206;28;20712;-82
2023/10/08 04:37:19;;;;;;;1.50;0.50;;;1.70;99.90;;;;;;5063349;28;20188;-86
2023/10/08 04:39:54;;;;;;;1.73;0.47;;;1.60;99.90;;;;;;5066256;28;20189;-84
2023/10/08 04:42:26;;;;;;;0.57;0.20;;;1.60;99.90;;;;;;5067381;28;20234;-84
2023/10/08 04:44:54;;;;;;;5.60;0.70;;;1.70;99.90;;;;;;5068887;28;20290;-85
2023/10/08 04:47:32;;;;;;;0.50;0.22;;;1.70;99.90;;;;;;5066510;28;20235;-84
2023/10/08 04:50:04;;;;;;;1.85;0.25;;;1.70;99.90;;;;;;5066367;28;20184;-85
2023/10/08 04:52:34;;;;;;;0.30;0.25;;;1.60;99.90;;;;;;5068398;28;20181;-84
2023/10/08 04:55:12;;;;;;;0.25;0.20;;;1.70;99.90;;;;;;5064453;28;20854;-84
2023/10/08 04:57:42;;;;;;;0.95;0.40;;;1.70;99.90;;;;;;5067580;28;20392;-85
2023/10/08 05:00:14;;;;;;;2.03;0.43;;;1.80;99.90;;;;;;5055528;28;20289;-85
2023/10/08 05:02:50;;;;;;;0.75;0.20;;;1.80;99.90;;;;;;5065701;28;20192;-83
2023/10/08 05:15:37;;;;;;;1.95;0.30;;;1.90;99.90;;;;;;5067347;28;20704;-84
2023/10/08 05:25:58;;;;;;;1.60;0.50;;;2.00;99.90;;;;;;5063092;28;20579;-84
2023/10/08 05:28:26;;;;;;;4.65;0.60;;;2.00;99.90;;;;;;5064905;28;20192;-83
2023/10/08 05:31:11;;;;;;;0.93;0.45;;;2.10;99.90;;;;;;5064466;28;20193;-85
2023/10/08 05:39:40;;;;;;;1.52;0.32;;;2.10;99.90;;;;;;5064178;28;20298;-85
2023/10/08 05:42:31;;;;;;;1.10;0.40;;;2.20;99.90;;;;;;5059801;28;20312;-84
2023/10/08 05:45:29;;;;;;;0.93;0.30;;;2.20;99.90;;;;;;5058893;28;20207;-84
2023/10/08 05:48:18;;;;;;;1.73;0.30;;;2.30;99.90;;;;;;5065560;28;20287;-85
2023/10/08 05:50:55;;;;;;;1.17;0.38;;;2.40;99.90;;;;;;5063768;28;20195;-84
2023/10/08 05:53:43;;;;;;;0.95;0.40;;;2.40;99.90;;;;;;5064906;28;20200;-84
2023/10/08 05:56:28;;;;;;;1.33;0.30;;;2.40;99.90;;;;;;5066223;28;20189;-85
2023/10/08 05:59:17;;;;;;;1.20;0.30;;;2.50;99.90;;;;;;5065617;28;21012;-83
2023/10/08 06:01:47;;;;;;;0.95;0.30;;;2.40;99.90;;;;;;5067840;28;20185;-86
2023/10/08 06:04:42;;;;;;;0.88;0.25;;;2.50;99.90;;;;;;5061618;28;20287;-84
2023/10/08 06:07:20;;;;;;;1.73;0.43;;;2.50;99.90;;;;;;5067976;28;20177;-84
2023/10/08 06:10:02;;;;;;;1.23;0.30;;;2.50;99.90;;;;;;5051218;28;20189;-86
2023/10/08 06:12:44;;;;;;;0.63;0.40;;;2.50;99.90;;;;;;5069938;28;20193;-85
2023/10/08 06:15:27;;;;;;;0.93;0.43;;;2.60;99.90;;;;;;5068190;28;20180;-84
2023/10/08 06:18:04;;;;;;;2.10;0.35;;;2.60;99.90;;;;;;5060267;28;20181;-86
2023/10/08 06:20:36;;;;;;;2.05;0.50;;;2.70;99.90;;;;;;5063100;28;20267;-84
2023/10/08 06:23:07;;;;;;;1.45;0.32;;;2.70;99.90;;;;;;5061862;28;20242;-85
2023/10/08 06:25:44;;;;;;;1.17;0.40;;;2.70;99.90;;;;;;5068778;28;20201;-83
2023/10/08 06:28:21;;;;;;;0.70;0.30;;;2.70;99.90;;;;;;5066876;28;20189;-85
2023/10/08 06:30:53;;;;;;;2.58;0.57;;;2.80;99.90;;;;;;5066872;28;20574;-86
2023/10/08 06:33:30;;;;;;;0.65;0.30;;;2.90;99.90;;;;;;5067854;28;20193;-84
2023/10/08 06:36:02;;;;;;;1.20;0.30;;;3.00;99.90;;;;;;5061784;28;20259;-84
2023/10/08 06:38:34;;;;;;;1.60;0.40;;;2.90;99.90;;;;;;5067390;28;20553;-85
2023/10/08 06:44:14;;;;;;;2.47;0.60;;;3.10;99.90;;;;;;5064838;28;20268;-85
2023/10/08 06:46:42;;;;;;;0.77;0.43;;;3.10;99.90;;;;;;5082658;28;20270;-86
2023/10/08 06:49:13;;;;;;;0.52;0.38;;;3.20;99.90;;;;;;5068206;28;20186;-85
2023/10/08 06:51:43;;;;;;;4.18;0.50;;;3.30;99.90;;;;;;5066116;28;20193;-85
2023/10/08 06:54:13;;;;;;;1.67;0.50;;;3.30;99.90;;;;;;5071099;28;20768;-85
2023/10/08 06:56:51;;;;;;;4.38;0.35;;;3.30;99.90;;;;;;5069044;28;20280;-85
2023/10/08 06:59:23;;;;;;;4.13;0.50;;;3.40;99.90;;;;;;5068037;28;20176;-85
2023/10/08 07:01:53;;;;;;;1.80;0.40;;;3.40;99.90;;;;;;5068887;28;20184;-86
2023/10/08 07:04:24;;;;;;;3.47;0.60;;;3.60;99.90;;;;;;5069384;28;20639;-86
2023/10/08 07:06:54;;;;;;;2.20;0.43;;;3.60;99.90;;;;;;5060825;28;20708;-84
2023/10/08 07:09:22;;;;;;;12.43;0.65;;;3.60;99.90;;;;;;5065761;28;20204;-85
2023/10/08 07:11:54;;;;;;;4.40;0.50;;;3.70;99.90;;;;;;5059931;28;20273;-85
2023/10/08 07:14:26;;;;;;;1.38;0.40;;;3.60;99.90;;;;;;5067609;28;20189;-84
2023/10/08 07:16:59;;;;;;;3.45;0.50;;;3.80;99.90;;;;;;5065623;28;20226;-85
2023/10/08 07:19:37;;;;;;;3.67;0.40;;;3.90;99.90;;;;;;5067429;28;20275;-84
2023/10/08 07:22:28;;;;;;;2.55;0.40;;;4.00;99.90;;;;;;5068307;28;20568;-84
2023/10/08 07:24:57;;;;;;;4.03;0.55;;;4.00;99.90;;;;;;5067922;28;20581;-85
2023/10/08 07:27:31;;;;;;;3.15;0.65;;;3.90;99.90;;;;;;5069014;28;20268;-84
2023/10/08 07:30:02;;;;;;;2.35;0.50;;;4.00;99.90;;;;;;5070033;28;20775;-84
2023/10/08 07:32:30;;;;;;;2.10;0.60;;;4.00;99.90;;;;;;5069051;28;20188;-85
2023/10/08 07:35:14;;;;;;;3.08;0.47;;;4.10;99.90;;;;;;5067681;28;20185;-84
2023/10/08 07:37:44;;;;;;;1.35;0.30;;;4.10;99.90;;;;;;5068031;28;20188;-84
2023/10/08 07:40:14;;;;;;;1.08;0.57;;;4.10;99.90;;;;;;5067780;28;20195;-84
2023/10/08 07:42:43;;;;;;;1.00;0.35;;;4.10;99.90;;;;;;5067519;28;20231;-83
2023/10/08 07:45:17;;;;;;;3.50;0.60;;;4.20;99.90;;;;;;5057374;28;20524;-83
2023/10/08 07:47:45;;;;;;;3.42;0.43;;;4.20;99.90;;;;;;5067526;28;20184;-84
2023/10/08 07:50:15;;;;;;;2.42;0.30;;;4.30;99.90;;;;;;5067641;28;20185;-85
2023/10/08 07:52:44;;;;;;;1.38;0.40;;;4.20;99.90;;;;;;5067924;28;20664;-84
2023/10/08 07:55:17;;;;;;;1.95;0.50;;;4.20;99.90;;;;;;5068761;28;20203;-85
2023/10/08 07:57:46;;;;;;;1.17;0.40;;;4.20;99.90;;;;;;5067418;28;20264;-84
2023/10/08 08:00:25;;;;;;;1.00;0.52;;;4.40;99.90;;;;;;5067604;28;20723;-84
2023/10/08 08:02:54;;;;;;;2.17;0.50;;;4.40;99.90;;;;;;5065650;28;20181;-84
2023/10/08 08:05:23;;;;;;;1.48;0.55;;;4.40;99.90;;;;;;5053902;28;20180;-83
2023/10/08 08:07:52;;;;;;;2.30;0.40;;;4.50;99.90;;;;;;5064874;28;20271;-85
2023/10/08 08:10:23;;;;;;;0.80;0.43;;;4.50;99.90;;;;;;5069693;28;20181;-85
2023/10/08 08:12:56;;;;;;;2.60;0.43;;;4.60;99.90;;;;;;5050820;28;20195;-85
2023/10/08 08:15:26;;;;;;;1.13;0.40;;;4.70;99.90;;;;;;5048486;28;20185;-83
2023/10/08 08:17:54;;;;;;;0.50;0.40;;;4.50;99.90;;;;;;5064610;28;20262;-85
2023/10/08 08:20:38;;;;;;;0.90;0.40;;;4.60;99.90;;;;;;5066371;28;20832;-84
2023/10/08 08:23:13;;;;;;;4.15;0.50;;;4.60;99.90;;;;;;5065773;28;20215;-85
2023/10/08 08:26:26;;;;;;;1.10;0.60;;;4.60;99.90;;;;;;5066887;28;20731;-85
2023/10/08 08:28:37;;;;;;;0.25;0.25;;;4.60;99.90;;;;;;5066466;28;20188;-85
2023/10/08 08:31:13;;;;;;;1.08;0.50;;;4.70;99.90;;;;;;5062914;28;20665;-85
2023/10/08 08:33:56;;;;;;;3.20;0.40;;;5.00;99.90;;;;;;5065643;28;20667;-85
2023/10/08 08:36:24;;;;;;;2.50;0.30;;;5.00;99.90;;;;;;5066012;28;20195;-86
2023/10/08 08:38:54;;;;;;;2.97;0.70;;;4.80;99.90;;;;;;5063840;28;20545;-85
2023/10/08 08:41:25;;;;;;;3.78;0.57;;;4.80;99.90;;;;;;5063013;28;20236;-87
2023/10/08 08:44:00;;;;;;;3.15;0.52;;;4.80;99.90;;;;;;5050499;28;20224;-85
2023/10/08 08:46:30;;;;;;;2.03;0.50;;;4.80;99.90;;;;;;5064891;28;20283;-86
2023/10/08 08:49:11;;;;;;;2.08;0.30;;;4.70;99.90;;;;;;5066711;28;20242;-85
2023/10/08 08:51:42;;;;;;;1.60;0.43;;;4.80;99.90;;;;;;5061769;28;20284;-86
2023/10/08 08:54:11;;;;;;;0.38;0.30;;;4.80;99.90;;;;;;5056618;28;20620;-86
2023/10/08 08:56:41;;;;;;;1.20;0.50;;;4.80;99.90;;;;;;5068811;28;20280;-85
2023/10/08 08:59:12;;;;;;;1.80;0.45;;;4.80;99.90;;;;;;5065796;28;20285;-86
2023/10/08 09:01:41;;;;;;;1.15;0.30;;;4.80;99.90;;;;;;5065146;28;20193;-85
2023/10/08 09:04:09;;;;;;;1.73;0.40;;;4.90;99.90;;;;;;5058706;28;20259;-85
2023/10/08 09:06:37;;;;;;;1.10;0.40;;;4.90;99.90;;;;;;5056189;28;20204;-85
2023/10/08 09:09:25;;;;;;;3.42;0.50;;;5.00;99.90;;;;;;5062746;28;20188;-84
2023/10/08 09:11:55;;;;;;;2.08;0.32;;;4.80;99.90;;;;;;5062097;28;20181;-85
2023/10/08 09:14:25;;;;;;;2.65;0.57;;;4.90;99.90;;;;;;5055831;28;20231;-84
2023/10/08 09:16:56;;;;;;;2.67;0.47;;;5.00;99.90;;;;;;5039207;28;20211;-85
2023/10/08 09:19:25;;;;;;;2.40;0.40;;;4.90;99.90;;;;;;5060439;28;20217;-84
2023/10/08 09:22:11;;;;;;;1.08;0.40;;;4.90;99.90;;;;;;5061106;28;20216;-84
2023/10/08 09:24:41;;;;;;;0.47;0.30;;;4.90;99.90;;;;;;5063329;28;20195;-84
2023/10/08 09:27:14;;;;;;;0.90;0.45;;;4.80;99.90;;;;;;5054567;28;20282;-85
2023/10/08 09:29:43;;;;;;;0.52;0.43;;;4.80;99.90;;;;;;5060804;28;20190;-86
2023/10/08 09:32:23;;;;;;;1.42;0.38;;;4.70;99.90;;;;;;5066870;28;20187;-85
2023/10/08 09:34:56;;;;;;;0.77;0.38;;;4.80;99.90;;;;;;5050852;28;20188;-86
2023/10/08 09:37:24;;;;;;;2.03;0.40;;;5.00;99.90;;;;;;5086154;28;20189;-85
2023/10/08 09:39:53;;;;;;;2.22;0.50;;;5.30;99.90;;;;;;5070290;28;20662;-84
2023/10/08 09:42:24;;;;;;;0.55;0.30;;;5.20;99.90;;;;;;5070525;28;20213;-85
2023/10/08 09:44:51;;;;;;;2.13;0.60;;;5.30;99.90;;;;;;5071043;28;20191;-85
2023/10/08 09:47:24;;;;;;;1.70;0.52;;;5.50;99.90;;;;;;5068808;28;20208;-85
2023/10/08 09:50:07;;;;;;;0.77;0.40;;;5.60;99.90;;;;;;5068573;28;20662;-85
2023/10/08 09:52:48;;;;;;;0.30;0.30;;;5.70;99.90;;;;;;5068196;28;20543;-85
2023/10/08 09:55:18;;;;;;;1.75;0.28;;;5.90;99.90;;;;;;5068875;28;20185;-86
2023/10/08 09:57:46;;;;;;;0.95;0.50;;;5.80;99.90;;;;;;5069560;28;20188;-86
2023/10/08 10:00:15;;;;;;;3.17;0.55;;;5.50;99.90;;;;;;5071796;28;20188;-86
2023/10/08 10:02:44;;;;;;;3.30;0.50;;;5.30;99.90;;;;;;5069271;28;20692;-86
2023/10/08 10:05:12;;;;;;;2.13;0.40;;;4.90;99.90;;;;;;5067210;28;20185;-85
2023/10/08 10:07:44;;;;;;;0.65;0.40;;;4.60;99.90;;;;;;5051923;28;20729;-85
2023/10/08 10:10:34;;;;;;;0.63;0.38;;;4.50;99.90;;;;;;5052212;28;20195;-86
2023/10/08 10:13:11;;;;;;;0.93;0.30;;;4.20;99.90;;;;;;5051043;28;20295;-86
2023/10/08 10:15:41;;;;;;;0.63;0.40;;;4.30;99.90;;;;;;5068246;28;20221;-85
2023/10/08 10:18:15;;;;;;;3.20;0.65;;;4.30;99.90;;;;;;5066355;28;20654;-85
2023/10/08 10:21:15;;;;;;;0.32;0.32;;;4.40;99.90;;;;;;5069690;28;20185;-86
2023/10/08 10:23:50;;;;;;;3.40;0.50;;;4.80;99.90;;;;;;5062516;28;20189;-86
2023/10/08 10:26:33;;;;;;;2.20;0.43;;;5.00;99.90;;;;;;5069078;28;20211;-84
2023/10/08 10:29:10;;;;;;;1.35;0.38;;;5.00;99.90;;;;;;5067193;28;20605;-86
2023/10/08 10:31:44;;;;;;;4.28;0.32;;;5.20;99.90;;;;;;5069992;28;20266;-85
2023/10/08 10:34:16;;;;;;;0.90;0.40;;;5.50;99.90;;;;;;5067506;28;20185;-85
2023/10/08 10:36:48;;;;;;;1.35;0.40;;;5.50;99.90;;;;;;5069042;28;20601;-85
2023/10/08 10:39:33;;;;;;;1.13;0.40;;;5.60;99.90;;;;;;5065564;28;20611;-85
2023/10/08 10:42:03;;;;;;;2.22;0.40;;;5.90;99.90;;;;;;5062282;28;20228;-86
2023/10/08 10:44:32;;;;;;;2.95;0.30;;;5.70;99.90;;;;;;5070516;28;20200;-84
2023/10/08 10:49:54;;;;;;;2.63;0.30;;;5.70;99.90;;;;;;5060258;28;20189;-85
2023/10/08 10:52:51;;;;;;;9.10;0.70;;;5.60;99.90;;;;;;5069576;28;20196;-85
2023/10/08 10:55:31;;;;;;;3.20;0.65;;;5.50;99.90;;;;;;5061766;28;20192;-85
2023/10/08 10:58:24;;;;;;;2.45;0.70;;;5.50;99.90;;;;;;5063872;28;20185;-84
2023/10/08 11:00:57;;;;;;;4.18;0.60;;;5.50;99.90;;;;;;5060027;28;20190;-84
2023/10/08 11:03:25;;;;;;;1.70;0.60;;;5.40;99.90;;;;;;5058388;28;20196;-85
2023/10/08 11:06:05;;;;;;;1.38;0.40;;;5.40;99.90;;;;;;5067847;28;21565;-84
2023/10/08 11:08:37;;;;;;;1.48;0.30;;;5.40;99.90;;;;;;5055300;28;20197;-85
2023/10/08 11:11:09;;;;;;;1.10;0.35;;;5.20;99.90;;;;;;5063112;28;20188;-85
2023/10/08 11:13:38;;;;;;;0.30;0.30;;;5.10;99.90;;;;;;5064562;28;20193;-84
2023/10/08 11:16:08;;;;;;;2.50;0.30;;;5.00;99.90;;;;;;5061986;28;20609;-84
2023/10/08 11:18:47;;;;;;;0.55;0.30;;;5.00;99.90;;;;;;5057532;28;20561;-84
2023/10/08 11:21:22;;;;;;;0.73;0.40;;;5.10;99.90;;;;;;5058665;28;20185;-85
2023/10/08 11:23:55;;;;;;;3.42;0.30;;;5.20;99.90;;;;;;5070921;28;20179;-85
2023/10/08 11:26:35;;;;;;;2.85;0.40;;;5.30;99.90;;;;;;5060429;28;20205;-84
2023/10/08 11:29:03;;;;;;;0.95;0.30;;;5.30;99.90;;;;;;5044815;28;20188;-85
2023/10/08 11:31:34;;;;;;;1.40;0.50;;;5.30;99.90;;;;;;5059802;28;20266;-84
2023/10/08 11:34:09;;;;;;;0.90;0.40;;;5.30;99.90;;;;;;5067448;28;20193;-84
2023/10/08 11:36:52;;;;;;;0.70;0.30;;;5.30;99.90;;;;;;5058229;28;20200;-86
2023/10/08 11:39:21;;;;;;;2.47;0.30;;;5.50;99.90;;;;;;5062307;28;20189;-85
2023/10/08 11:42:03;;;;;;;0.95;0.30;;;5.80;99.90;;;;;;5067843;28;20811;-86
2023/10/08 11:44:35;;;;;;;0.73;0.40;;;5.80;99.90;;;;;;5068409;28;20608;-85
2023/10/08 11:47:11;;;;;;;2.20;0.40;;;5.70;99.90;;;;;;5069840;28;20229;-84
2023/10/08 11:50:30;;;;;;;1.13;0.45;;;5.50;99.90;;;;;;5064030;28;20230;-85
2023/10/08 11:52:31;;;;;;;0.40;0.40;;;4.80;99.90;;;;;;5061743;28;20234;-85
2023/10/08 11:54:58;;;;;;;1.65;0.28;;;4.30;99.90;;;;;;5068107;28;20268;-85
2023/10/08 11:57:26;;;;;;;0.70;0.20;;;4.10;99.90;;;;;;5061736;28;20192;-86
2023/10/08 11:59:57;;;;;;;0.28;0.20;;;4.10;99.90;;;;;;5049167;28;20275;-86
2023/10/08 12:02:25;;;;;;;0.55;0.30;;;4.20;99.90;;;;;;5066890;28;20199;-86
2023/10/08 12:04:57;;;;;;;2.25;0.40;;;4.20;99.90;;;;;;5048468;28;20207;-86
2023/10/08 12:07:28;;;;;;;1.45;0.40;;;4.30;99.90;;;;;;5082390;28;20208;-85
2023/10/08 12:09:57;;;;;;;1.48;0.30;;;4.40;99.90;;;;;;5066485;28;20200;-86
2023/10/08 12:12:27;;;;;;;2.45;0.32;;;4.60;99.90;;;;;;5064013;28;20200;-86
2023/10/08 12:14:57;;;;;;;0.85;0.28;;;4.70;99.90;;;;;;5064890;28;20188;-86
2023/10/08 12:17:37;;;;;;;0.77;0.35;;;4.70;99.90;;;;;;5064002;28;20400;-84
2023/10/08 12:20:22;;;;;;;1.63;0.40;;;4.70;99.90;;;;;;5039698;28;20201;-85
2023/10/08 12:22:52;;;;;;;1.05;0.38;;;4.80;99.90;;;;;;5060892;28;20189;-85
2023/10/08 12:25:25;;;;;;;0.40;0.22;;;5.00;99.90;;;;;;5066743;28;20216;-86
2023/10/08 12:27:55;;;;;;;1.80;0.60;;;4.80;99.90;;;;;;5067270;28;20284;-86
2023/10/08 12:30:30;;;;;;;0.45;0.35;;;4.80;99.90;;;;;;5062300;28;20184;-86
2023/10/08 12:33:00;;;;;;;0.43;0.40;;;4.70;99.90;;;;;;5060990;28;20863;-85
2023/10/08 12:35:29;;;;;;;0.63;0.40;;;4.80;99.90;;;;;;5065894;28;20591;-85
2023/10/08 12:37:57;;;;;;;0.47;0.30;;;4.80;99.90;;;;;;5066952;28;20230;-85
2023/10/08 12:40:41;;;;;;;0.47;0.38;;;4.80;99.90;;;;;;5079586;28;20306;-86
2023/10/08 12:43:09;;;;;;;2.13;0.50;;;4.90;99.90;;;;;;5063276;28;20185;-85
2023/10/08 12:45:37;;;;;;;0.88;0.35;;;4.80;99.90;;;;;;5042405;28;20297;-85
2023/10/08 12:48:08;;;;;;;1.52;0.32;;;4.80;99.90;;;;;;5067120;28;20205;-84
2023/10/08 12:50:44;;;;;;;4.18;0.70;;;4.70;99.90;;;;;;5052546;28;20581;-84
2023/10/08 12:53:12;;;;;;;0.70;0.40;;;4.80;99.90;;;;;;5049044;28;20204;-84
2023/10/08 12:55:42;;;;;;;0.60;0.30;;;4.90;99.90;;;;;;5050466;28;20239;-84
2023/10/08 12:58:10;;;;;;;0.88;0.20;;;4.90;99.90;;;;;;5060950;28;20192;-85
2023/10/08 13:00:38;;;;;;;0.93;0.50;;;5.10;99.90;;;;;;5058402;28;20667;-84
2023/10/08 13:03:11;;;;;;;1.17;0.55;;;5.10;99.90;;;;;;5057760;28;22044;-84
2023/10/08 13:05:38;;;;;;;0.60;0.35;;;5.20;99.90;;;;;;5058871;28;20228;-85
2023/10/08 13:08:09;;;;;;;1.23;0.60;;;5.20;99.90;;;;;;5057160;28;20247;-85
2023/10/08 13:10:41;;;;;;;0.85;0.40;;;5.30;99.90;;;;;;5059131;28;20235;-85
2023/10/08 13:13:10;;;;;;;1.42;0.40;;;5.50;99.90;;;;;;5065938;28;20747;-84
2023/10/08 13:15:41;;;;;;;2.88;0.50;;;5.60;99.90;;;;;;5067076;28;20269;-85
2023/10/08 13:18:09;;;;;;;0.30;0.30;;;5.50;99.90;;;;;;5061066;28;20268;-85
2023/10/08 13:20:40;;;;;;;2.22;0.50;;;5.60;99.90;;;;;;5064442;28;20204;-85
2023/10/08 13:23:13;;;;;;;0.95;0.50;;;5.50;99.90;;;;;;5064333;28;20287;-85
2023/10/08 13:25:40;;;;;;;1.92;0.50;;;5.70;99.90;;;;;;5068262;28;20184;-84
2023/10/08 13:28:11;;;;;;;4.97;0.50;;;5.70;99.90;;;;;;5066255;28;20207;-85
2023/10/08 13:30:39;;;;;;;2.92;0.50;;;5.70;99.90;;;;;;5049833;28;20756;-84
2023/10/08 13:33:08;;;;;;;1.67;0.32;;;5.80;99.90;;;;;;5066201;28;20188;-85
2023/10/08 13:35:36;;;;;;;2.45;0.50;;;5.80;99.90;;;;;;5068267;28;20781;-85
2023/10/08 13:38:09;;;;;;;3.95;0.60;;;5.50;99.90;;;;;;5066079;28;20180;-85
2023/10/08 13:40:43;;;;;;;1.23;0.50;;;5.40;99.90;;;;;;5059862;28;20311;-86
2023/10/08 13:43:33;;;;;;;0.55;0.40;;;5.20;99.90;;;;;;5056306;28;20193;-85
2023/10/08 13:46:08;;;;;;;1.75;0.50;;;5.10;99.90;;;;;;5055224;28;20204;-86
2023/10/08 13:48:36;;;;;;;5.07;0.60;;;4.80;99.90;;;;;;5052474;28;20200;-86
2023/10/08 13:51:05;;;;;;;3.88;0.45;;;4.60;99.90;;;;;;5064268;28;20803;-85
2023/10/08 13:53:36;;;;;;;1.25;0.40;;;4.50;99.90;;;;;;5055318;28;20186;-86
2023/10/08 13:56:04;;;;;;;1.05;0.40;;;4.70;99.90;;;;;;5063171;28;20192;-87
2023/10/08 13:58:35;;;;;;;2.25;0.50;;;4.60;99.90;;;;;;5063028;28;20197;-85
2023/10/08 14:01:18;;;;;;;0.80;0.40;;;4.50;99.90;;;;;;5060794;28;20193;-85
2023/10/08 14:03:53;;;;;;;1.00;0.43;;;4.60;99.90;;;;;;5063809;28;20192;-85
2023/10/08 14:06:22;;;;;;;0.95;0.50;;;4.60;99.90;;;;;;5059630;28;20184;-84
2023/10/08 14:08:52;;;;;;;3.25;0.50;;;4.60;99.90;;;;;;5044140;28;20204;-85
2023/10/08 14:11:23;;;;;;;1.13;0.40;;;4.70;99.90;;;;;;5061656;28;20184;-85
2023/10/08 14:13:51;;;;;;;0.85;0.38;;;4.70;99.90;;;;;;5058910;28;20197;-85
2023/10/08 14:16:23;;;;;;;0.82;0.40;;;4.60;99.90;;;;;;5062665;28;20213;-86
2023/10/08 14:18:53;;;;;;;29.17;14.38;;;4.60;99.90;;;;;;5038142;28;20608;-84
2023/10/08 14:21:24;;;;;;;3.25;1.63;;;4.60;99.90;;;;;;5055048;28;20238;-85
2023/10/08 14:23:56;;;;;;;0.90;0.60;;;4.60;99.90;;;;;;5062635;28;20645;-84
2023/10/08 14:26:25;;;;;;;1.05;0.70;;;4.60;99.90;;;;;;5054415;28;20292;-86
2023/10/08 14:28:58;;;;;;;3.28;0.57;;;4.60;99.90;;;;;;5067026;28;20207;-84